Time;durP1;ratioP1;P1;durP2;ratioP2;P2;SDS_P1;SDS_P2;PMS_P1;PMS_P2;Temp;Humidity;BMP_temperature;BMP_pressure;BME280_temperature;BME280_humidity;BME280_pressure;Samples;Min_cycle;Max_cycle;Signal;HPM_P1;HPM_P2
2022/06/15 00:03:37;;;;;;;1.23;0.40;;;;;;;;;;20748170;28;20222;-69
2022/06/15 00:13:38;;;;;;;0.75;0.47;;;23.00;86.20;;;;;;20747709;28;20653;-69
2022/06/15 00:23:41;;;;;;;1.10;0.50;;;;;;;;;;20745427;28;20272;-69
2022/06/15 00:33:43;;;;;;;1.02;0.60;;;;;;;;;;20706066;28;20299;-69
2022/06/15 00:43:47;;;;;;;0.50;0.32;;;;;;;;;;20729767;28;20216;-69
2022/06/15 00:53:49;;;;;;;1.27;0.30;;;;;;;;;;20728413;28;20217;-68
2022/06/15 01:03:51;;;;;;;1.10;0.40;;;;;;;;;;20734042;28;20254;-69
2022/06/15 01:14:23;;;;;;;1.20;0.50;;;22.30;79.40;;;;;;20742661;28;20219;-68
2022/06/15 01:24:38;;;;;;;1.05;0.40;;;;;;;;;;20728380;28;20213;-69
2022/06/15 01:34:55;;;;;;;0.60;0.47;;;22.10;90.70;;;;;;20740469;28;20564;-69
2022/06/15 01:45:10;;;;;;;1.33;0.55;;;22.00;90.90;;;;;;20741100;28;20212;-69
2022/06/15 01:55:22;;;;;;;0.57;0.40;;;22.00;91.60;;;;;;20740732;28;20241;-68
2022/06/15 02:05:57;;;;;;;0.40;0.40;;;;;;;;;;20738677;28;20229;-69
2022/06/15 02:16:07;;;;;;;0.68;0.40;;;;;;;;;;20706429;28;20226;-68
2022/06/15 02:26:12;;;;;;;0.57;0.47;;;21.50;91.90;;;;;;20723865;28;20224;-68
2022/06/15 02:36:18;;;;;;;1.52;0.80;;;;;;;;;;20729375;28;20280;-69
2022/06/15 02:46:21;;;;;;;0.82;0.30;;;21.40;93.40;;;;;;20728462;28;20232;-68
2022/06/15 02:56:59;;;;;;;2.70;0.70;;;;;;;;;;20637873;22;20233;-70
2022/06/15 03:07:02;;;;;;;0.68;0.40;;;;;;;;;;20767925;28;20634;-69
2022/06/15 03:17:05;;;;;;;3.40;0.57;;;21.10;93.80;;;;;;20737168;28;20581;-70
2022/06/15 03:27:24;;;;;;;1.77;0.73;;;;;;;;;;20737752;28;20219;-69
2022/06/15 03:37:26;;;;;;;1.20;0.60;;;;;;;;;;20700348;28;20204;-70
2022/06/15 03:47:39;;;;;;;2.93;0.60;;;;;;;;;;20668667;28;20212;-69
2022/06/15 03:57:42;;;;;;;1.60;0.73;;;;;;;;;;20644999;28;20221;-69
2022/06/15 04:18:11;;;;;;;0.70;0.50;;;;;;;;;;20734254;28;20242;-69
2022/06/15 04:28:22;;;;;;;0.90;0.50;;;20.50;99.70;;;;;;20685511;28;20231;-69
2022/06/15 04:38:25;;;;;;;1.70;0.57;;;;;;;;;;20645971;28;20237;-69
2022/06/15 04:48:35;;;;;;;1.53;0.60;;;;;;;;;;20644043;28;20224;-70
2022/06/15 04:58:39;;;;;;;2.03;0.50;;;;;;;;;;20653909;28;20769;-69
2022/06/15 05:08:44;;;;;;;1.15;0.65;;;;;;;;;;20648161;28;20246;-69
2022/06/15 05:18:46;;;;;;;1.57;0.40;;;;;;;;;;20648883;28;20232;-70
2022/06/15 05:28:55;;;;;;;1.47;0.50;;;;;;;;;;20715700;28;21008;-69
2022/06/15 05:38:57;;;;;;;1.77;0.50;;;;;;;;;;20658190;28;20212;-69
2022/06/15 05:49:01;;;;;;;1.80;0.77;;;;;;;;;;20715094;28;20222;-69
2022/06/15 05:59:05;;;;;;;1.07;0.57;;;;;;;;;;20738266;28;20221;-70
2022/06/15 06:09:07;;;;;;;0.90;0.50;;;;;;;;;;20677363;28;20224;-70
2022/06/15 06:19:10;;;;;;;1.10;0.50;;;;;;;;;;20696576;28;20318;-71
2022/06/15 06:29:13;;;;;;;3.07;0.83;;;21.40;99.90;;;;;;20737844;28;20227;-70
2022/06/15 06:39:18;;;;;;;1.13;0.50;;;;;;;;;;20738795;28;20200;-71
2022/06/15 06:49:22;;;;;;;2.95;0.68;;;22.20;93.60;;;;;;20739209;28;20299;-70
2022/06/15 06:59:23;;;;;;;1.83;0.90;;;;;;;;;;20721094;28;20216;-71
2022/06/15 07:09:30;;;;;;;0.98;0.60;;;;;;;;;;20741990;28;20230;-70
2022/06/15 07:19:32;;;;;;;0.85;0.60;;;;;;;;;;20754677;28;20273;-71
2022/06/15 07:29:55;;;;;;;3.05;0.80;;;;;;;;;;20747946;28;20231;-71
2022/06/15 07:39:57;;;;;;;0.85;0.68;;;;;;;;;;20754532;28;20250;-70
2022/06/15 07:50:02;;;;;;;1.77;0.90;;;;;;;;;;20749521;28;20295;-71
2022/06/15 08:00:10;;;;;;;1.52;0.80;;;23.50;98.30;;;;;;20746723;28;20299;-71
2022/06/15 08:10:17;;;;;;;2.67;0.90;;;23.80;95.80;;;;;;20748052;28;20215;-70
2022/06/15 08:20:27;;;;;;;2.83;0.60;;;;;;;;;;20745143;28;20212;-70
2022/06/15 08:30:28;;;;;;;3.95;1.05;;;24.60;93.10;;;;;;20746252;28;20222;-71
2022/06/15 08:40:41;;;;;;;1.98;0.60;;;24.80;91.30;;;;;;20745185;28;20229;-70
2022/06/15 08:51:11;;;;;;;1.73;0.80;;;24.90;93.20;;;;;;20744637;28;20605;-71
2022/06/15 09:01:55;;;;;;;1.02;0.85;;;25.20;96.50;;;;;;20767138;22;20719;-70
2022/06/15 09:12:49;;;;;;;2.13;0.90;;;25.50;84.70;;;;;;20662874;28;20767;-70
2022/06/15 09:23:08;;;;;;;2.92;0.82;;;25.80;93.80;;;;;;20661924;28;20222;-70
2022/06/15 09:33:10;;;;;;;1.17;0.68;;;;;;;;;;20658569;28;20600;-70
2022/06/15 09:43:18;;;;;;;0.90;0.60;;;;;;;;;;20660191;28;20221;-70
2022/06/15 09:53:47;;;;;;;1.85;0.65;;;26.50;83.10;;;;;;20661213;28;20557;-70
2022/06/15 10:03:51;;;;;;;1.30;0.80;;;;;;;;;;20658691;28;20248;-69
2022/06/15 10:13:53;;;;;;;1.90;0.75;;;;;;;;;;20658233;28;20639;-70
2022/06/15 10:24:17;;;;;;;1.77;0.82;;;26.90;88.00;;;;;;20656676;28;20292;-70
2022/06/15 10:34:40;;;;;;;1.70;0.68;;;;;;;;;;20656475;28;20249;-70
2022/06/15 10:44:53;;;;;;;1.60;0.80;;;27.70;86.80;;;;;;20655309;28;20577;-69
2022/06/15 11:05:44;;;;;;;3.33;0.85;;;28.20;87.80;;;;;;20671876;28;20292;-69
2022/06/15 11:36:55;;;;;;;1.10;0.70;;;;;;;;;;20669136;28;20269;-70
2022/06/15 11:47:09;;;;;;;1.45;0.80;;;;;;;;;;20668662;28;20211;-70
2022/06/15 11:57:32;;;;;;;1.60;0.85;;;29.30;75.20;;;;;;20666722;28;20293;-70
2022/06/15 12:07:41;;;;;;;1.23;0.80;;;29.40;75.90;;;;;;20667013;28;20234;-69
2022/06/15 12:17:47;;;;;;;0.75;0.60;;;;;;;;;;20665733;28;20223;-70
2022/06/15 12:27:54;;;;;;;1.80;0.90;;;;;;;;;;20665482;28;20219;-70
2022/06/15 12:37:57;;;;;;;1.48;0.75;;;;;;;;;;20665055;28;20211;-70
2022/06/15 12:48:00;;;;;;;1.08;0.68;;;;;;;;;;20664460;28;20285;-70
2022/06/15 12:58:29;;;;;;;1.45;0.60;;;30.50;65.70;;;;;;20663694;28;20216;-70
2022/06/15 13:08:34;;;;;;;1.67;0.90;;;30.60;85.10;;;;;;20660505;28;20575;-70
2022/06/15 13:18:42;;;;;;;1.10;0.68;;;;;;;;;;20661847;28;20222;-70
2022/06/15 13:29:04;;;;;;;1.75;0.80;;;30.80;76.70;;;;;;20659788;28;20262;-70
2022/06/15 13:39:47;;;;;;;1.92;0.73;;;30.80;61.80;;;;;;20658093;28;20211;-70
2022/06/15 13:49:49;;;;;;;1.52;0.70;;;;;;;;;;20659657;28;20211;-70
2022/06/15 14:00:12;;;;;;;0.75;0.60;;;31.10;64.70;;;;;;20657810;28;20267;-70
2022/06/15 14:10:15;;;;;;;0.93;0.63;;;;;;;;;;20659572;28;20215;-70
2022/06/15 14:20:28;;;;;;;1.67;0.80;;;31.40;76.90;;;;;;20657226;28;20207;-70
2022/06/15 14:30:33;;;;;;;1.00;0.70;;;31.50;71.80;;;;;;20652088;28;20215;-70
2022/06/15 14:40:41;;;;;;;1.20;0.63;;;31.60;74.50;;;;;;20675856;28;20221;-70
2022/06/15 14:50:43;;;;;;;1.05;0.68;;;;;;;;;;20630665;28;20580;-71
2022/06/15 15:00:46;;;;;;;0.88;0.65;;;32.00;68.60;;;;;;20623461;28;20278;-71
2022/06/15 15:10:50;;;;;;;0.95;0.68;;;;;;;;;;20672481;28;20274;-72
2022/06/15 15:20:54;;;;;;;1.27;0.70;;;;;;;;;;20646426;28;20291;-72
2022/06/15 15:41:32;;;;;;;1.17;0.60;;;;;;;;;;20637688;28;20230;-71
2022/06/15 15:51:34;;;;;;;1.52;0.70;;;;;;;;;;20618382;28;20303;-71
2022/06/15 16:01:56;;;;;;;0.95;0.63;;;;;;;;;;20585347;28;20228;-71
2022/06/15 16:11:58;;;;;;;1.00;0.70;;;30.40;72.40;;;;;;20638389;28;20282;-69
2022/06/15 16:22:02;;;;;;;0.70;0.50;;;32.20;62.20;;;;;;20676665;28;20207;-70
2022/06/15 16:32:05;;;;;;;1.58;0.50;;;;;;;;;;20693371;28;20301;-70
2022/06/15 16:42:12;;;;;;;0.80;0.65;;;32.30;75.40;;;;;;20732047;28;20245;-69
2022/06/15 16:52:14;;;;;;;1.10;0.60;;;;;;;;;;20660366;28;20282;-72
2022/06/15 17:02:16;;;;;;;2.03;0.65;;;;;;;;;;20608137;28;20199;-70
2022/06/15 17:12:18;;;;;;;1.90;0.60;;;31.70;68.50;;;;;;20624242;28;20215;-70
2022/06/15 17:22:21;;;;;;;1.10;0.60;;;;;;;;;;20635977;28;20232;-70
2022/06/15 17:32:23;;;;;;;1.40;0.88;;;;;;;;;;20645660;28;20220;-70
2022/06/15 17:42:25;;;;;;;1.70;0.70;;;;;;;;;;20667540;28;20212;-70
2022/06/15 17:52:27;;;;;;;1.55;0.80;;;;;;;;;;20625475;28;20225;-70
2022/06/15 18:02:29;;;;;;;1.33;0.80;;;;;;;;;;20570603;28;20490;-70
2022/06/15 18:12:31;;;;;;;1.23;0.80;;;;;;;;;;20667046;28;20220;-70
2022/06/15 18:22:33;;;;;;;1.23;0.60;;;;;;;;;;20726600;28;20203;-69
2022/06/15 18:32:43;;;;;;;1.90;0.60;;;;;;;;;;20631027;28;20236;-70
2022/06/15 18:42:46;;;;;;;1.05;0.70;;;;;;;;;;20676858;28;20293;-71
2022/06/15 18:52:51;;;;;;;3.33;1.02;;;30.20;77.90;;;;;;20686684;28;20662;-70
2022/06/15 19:02:53;;;;;;;1.08;0.70;;;30.00;74.50;;;;;;20696098;28;20598;-70
2022/06/15 19:12:55;;;;;;;1.83;0.90;;;;;;;;;;20710149;28;20601;-70
2022/06/15 19:22:58;;;;;;;4.70;1.38;;;;;;;;;;20735633;28;20204;-70
2022/06/15 19:33:00;;;;;;;4.70;1.60;;;;;;;;;;20726302;28;20215;-70
2022/06/15 19:43:06;;;;;;;4.90;1.00;;;;;;;;;;20744694;28;20655;-70
2022/06/15 19:53:18;;;;;;;2.63;0.95;;;29.20;82.80;;;;;;20710048;28;20231;-70
2022/06/15 20:03:20;;;;;;;2.35;0.90;;;;;;;;;;20709424;28;20274;-70
2022/06/15 20:13:23;;;;;;;1.15;0.80;;;;;;;;;;20682255;28;20281;-70
2022/06/15 20:23:26;;;;;;;2.38;1.20;;;28.50;87.80;;;;;;20699858;28;20627;-70
2022/06/15 20:33:28;;;;;;;4.15;1.00;;;;;;;;;;20735137;28;20294;-70
2022/06/15 20:43:31;;;;;;;2.55;1.08;;;;;;;;;;20728369;28;20775;-70
2022/06/15 20:53:34;;;;;;;1.60;0.73;;;;;;;;;;20730206;28;20222;-70
2022/06/15 21:03:37;;;;;;;3.28;1.15;;;;;;;;;;20771969;22;20234;-69
2022/06/15 21:24:00;;;;;;;2.47;1.00;;;;;;;;;;20683526;28;20268;-71
2022/06/15 21:34:02;;;;;;;1.85;0.90;;;;;;;;;;20725901;28;20300;-71
2022/06/15 21:44:04;;;;;;;1.35;0.90;;;;;;;;;;20711166;28;20265;-72
2022/06/15 21:54:06;;;;;;;3.63;1.08;;;;;;;;;;20727744;28;20231;-69
2022/06/15 22:04:08;;;;;;;2.92;0.93;;;;;;;;;;20718056;28;20296;-71
2022/06/15 22:14:10;;;;;;;1.92;0.95;;;27.10;92.00;;;;;;20720666;28;20221;-70
2022/06/15 22:24:13;;;;;;;2.25;0.95;;;;;;;;;;20704374;28;20226;-70
2022/06/15 22:34:15;;;;;;;4.45;1.30;;;;;;;;;;20730494;28;20226;-71
2022/06/15 22:44:17;;;;;;;3.47;1.10;;;;;;;;;;20750886;28;20234;-71
2022/06/15 22:54:19;;;;;;;3.42;1.52;;;;;;;;;;20754625;28;20214;-71
2022/06/15 23:04:21;;;;;;;1.80;0.85;;;;;;;;;;20752266;28;20218;-71
2022/06/15 23:14:23;;;;;;;0.93;0.70;;;;;;;;;;20753051;28;20238;-71
2022/06/15 23:24:25;;;;;;;1.70;0.80;;;;;;;;;;20752223;28;20214;-71
2022/06/15 23:34:27;;;;;;;1.02;0.70;;;;;;;;;;20751664;28;20234;-70
2022/06/15 23:44:33;;;;;;;1.85;1.05;;;25.80;90.80;;;;;;20752138;28;20574;-71
2022/06/15 23:54:35;;;;;;;1.05;0.85;;;;;;;;;;20749772;28;20268;-71
